sensor_id;sensor_type;location;lat;lon;timestamp;pressure;altitude;pressure_sealevel;temperature;humidity
4576;BME280;2300;51.874;8.430;2022-12-07T00:01:37;100712.63;;;4.57;100.00
4576;BME280;2300;51.874;8.430;2022-12-07T00:04:05;100713.97;;;4.46;100.00
4576;BME280;2300;51.874;8.430;2022-12-07T00:06:33;100674.09;;;4.17;100.00
4576;BME280;2300;51.874;8.430;2022-12-07T00:09:00;100717.53;;;4.46;100.00
4576;BME280;2300;51.874;8.430;2022-12-07T00:11:28;100721.19;;;4.54;100.00
4576;BME280;2300;51.874;8.430;2022-12-07T00:13:56;100712.84;;;4.55;100.00
4576;BME280;2300;51.874;8.430;2022-12-07T00:16:25;100710.75;;;4.57;100.00
4576;BME280;2300;51.874;8.430;2022-12-07T00:18:52;100697.47;;;4.47;100.00
4576;BME280;2300;51.874;8.430;2022-12-07T00:21:21;100709.41;;;4.68;100.00
4576;BME280;2300;51.874;8.430;2022-12-07T00:23:49;100684.28;;;4.66;100.00
4576;BME280;2300;51.874;8.430;2022-12-07T00:26:17;100718.22;;;4.70;100.00
4576;BME280;2300;51.874;8.430;2022-12-07T00:28:46;100712.88;;;4.62;100.00
4576;BME280;2300;51.874;8.430;2022-12-07T00:31:14;100661.22;;;4.40;100.00
4576;BME280;2300;51.874;8.430;2022-12-07T00:33:40;100702.66;;;4.64;100.00
4576;BME280;2300;51.874;8.430;2022-12-07T00:36:09;100698.47;;;4.61;100.00
4576;BME280;2300;51.874;8.430;2022-12-07T00:38:37;100700.34;;;4.61;100.00
4576;BME280;2300;51.874;8.430;2022-12-07T00:41:06;100691.78;;;4.64;100.00
4576;BME280;2300;51.874;8.430;2022-12-07T00:43:33;100697.88;;;4.66;100.00
4576;BME280;2300;51.874;8.430;2022-12-07T00:46:01;100697.69;;;4.67;100.00
4576;BME280;2300;51.874;8.430;2022-12-07T00:48:28;100688.13;;;4.71;100.00
4576;BME280;2300;51.874;8.430;2022-12-07T00:50:54;100698.19;;;4.77;100.00
4576;BME280;2300;51.874;8.430;2022-12-07T00:53:21;100690.28;;;4.82;100.00
4576;BME280;2300;51.874;8.430;2022-12-07T00:55:48;100685.00;;;4.74;100.00
4576;BME280;2300;51.874;8.430;2022-12-07T00:58:15;100681.09;;;4.62;100.00
4576;BME280;2300;51.874;8.430;2022-12-07T01:00:44;100693.06;;;4.68;100.00
4576;BME280;2300;51.874;8.430;2022-12-07T01:03:13;100682.59;;;4.65;100.00
4576;BME280;2300;51.874;8.430;2022-12-07T01:05:49;100684.66;;;4.63;100.00
4576;BME280;2300;51.874;8.430;2022-12-07T01:08:15;100683.03;;;4.68;100.00
4576;BME280;2300;51.874;8.430;2022-12-07T01:10:42;100676.38;;;4.71;100.00
4576;BME280;2300;51.874;8.430;2022-12-07T01:13:09;100674.78;;;4.76;100.00
4576;BME280;2300;51.874;8.430;2022-12-07T01:15:38;100674.09;;;4.74;100.00
4576;BME280;2300;51.874;8.430;2022-12-07T01:18:05;100685.66;;;4.76;100.00
4576;BME280;2300;51.874;8.430;2022-12-07T01:20:33;100644.44;;;4.58;100.00
4576;BME280;2300;51.874;8.430;2022-12-07T01:23:00;100677.59;;;4.89;100.00
4576;BME280;2300;51.874;8.430;2022-12-07T01:25:27;100684.03;;;4.82;100.00
4576;BME280;2300;51.874;8.430;2022-12-07T01:27:53;100684.72;;;4.69;100.00
4576;BME280;2300;51.874;8.430;2022-12-07T01:30:20;100682.34;;;4.81;100.00
4576;BME280;2300;51.874;8.430;2022-12-07T01:32:46;100698.66;;;4.81;100.00
4576;BME280;2300;51.874;8.430;2022-12-07T01:35:13;100697.22;;;4.85;100.00
4576;BME280;2300;51.874;8.430;2022-12-07T01:37:41;100704.97;;;4.81;100.00
4576;BME280;2300;51.874;8.430;2022-12-07T01:40:10;100705.81;;;4.82;100.00
4576;BME280;2300;51.874;8.430;2022-12-07T01:42:37;100698.59;;;4.74;100.00
4576;BME280;2300;51.874;8.430;2022-12-07T01:45:36;100704.97;;;4.81;100.00
4576;BME280;2300;51.874;8.430;2022-12-07T01:48:04;100693.25;;;4.87;100.00
4576;BME280;2300;51.874;8.430;2022-12-07T01:50:31;100694.78;;;4.90;100.00
4576;BME280;2300;51.874;8.430;2022-12-07T01:53:01;100699.56;;;4.88;100.00
4576;BME280;2300;51.874;8.430;2022-12-07T01:55:30;100698.25;;;4.84;100.00
4576;BME280;2300;51.874;8.430;2022-12-07T01:57:57;100688.94;;;4.72;100.00
4576;BME280;2300;51.874;8.430;2022-12-07T02:00:24;100680.25;;;4.83;100.00
4576;BME280;2300;51.874;8.430;2022-12-07T02:02:53;100689.31;;;4.90;100.00
4576;BME280;2300;51.874;8.430;2022-12-07T02:05:21;100698.16;;;4.92;100.00
4576;BME280;2300;51.874;8.430;2022-12-07T02:07:49;100694.78;;;4.90;100.00
4576;BME280;2300;51.874;8.430;2022-12-07T02:10:22;100641.91;;;4.57;100.00
4576;BME280;2300;51.874;8.430;2022-12-07T02:12:52;100695.81;;;4.89;100.00
4576;BME280;2300;51.874;8.430;2022-12-07T02:15:22;100680.06;;;4.84;100.00
4576;BME280;2300;51.874;8.430;2022-12-07T02:17:56;100667.31;;;4.64;100.00
4576;BME280;2300;51.874;8.430;2022-12-07T02:20:29;100685.69;;;4.83;100.00
4576;BME280;2300;51.874;8.430;2022-12-07T02:29:09;100674.38;;;4.79;100.00
4576;BME280;2300;51.874;8.430;2022-12-07T02:31:39;100665.63;;;4.63;100.00
4576;BME280;2300;51.874;8.430;2022-12-07T02:34:12;100669.50;;;4.75;100.00
4576;BME280;2300;51.874;8.430;2022-12-07T02:36:45;100658.63;;;4.75;100.00
4576;BME280;2300;51.874;8.430;2022-12-07T02:39:17;100682.34;;;4.81;100.00
4576;BME280;2300;51.874;8.430;2022-12-07T02:41:48;100649.44;;;4.55;100.00
4576;BME280;2300;51.874;8.430;2022-12-07T02:44:21;100684.16;;;4.74;100.00
4576;BME280;2300;51.874;8.430;2022-12-07T02:46:53;100676.84;;;4.74;100.00
4576;BME280;2300;51.874;8.430;2022-12-07T02:49:22;100638.38;;;4.56;100.00
4576;BME280;2300;51.874;8.430;2022-12-07T02:51:50;100669.94;;;4.78;100.00
4576;BME280;2300;51.874;8.430;2022-12-07T02:54:20;100679.16;;;4.77;100.00
4576;BME280;2300;51.874;8.430;2022-12-07T02:56:50;100673.97;;;4.82;100.00
4576;BME280;2300;51.874;8.430;2022-12-07T02:59:27;100650.06;;;4.57;100.00
4576;BME280;2300;51.874;8.430;2022-12-07T03:02:07;100666.28;;;4.65;100.00
4576;BME280;2300;51.874;8.430;2022-12-07T03:04:44;100668.59;;;4.68;100.00
4576;BME280;2300;51.874;8.430;2022-12-07T03:07:21;100674.19;;;4.60;100.00
4576;BME280;2300;51.874;8.430;2022-12-07T03:09:53;100670.94;;;4.50;100.00
4576;BME280;2300;51.874;8.430;2022-12-07T03:12:29;100663.53;;;4.43;100.00
4576;BME280;2300;51.874;8.430;2022-12-07T03:15:02;100666.94;;;4.45;100.00
4576;BME280;2300;51.874;8.430;2022-12-07T03:17:33;100664.19;;;4.31;100.00
4576;BME280;2300;51.874;8.430;2022-12-07T03:20:04;100672.19;;;4.32;100.00
4576;BME280;2300;51.874;8.430;2022-12-07T03:22:34;100673.13;;;4.39;100.00
4576;BME280;2300;51.874;8.430;2022-12-07T03:25:04;100661.75;;;4.36;100.00
4576;BME280;2300;51.874;8.430;2022-12-07T03:27:35;100670.50;;;4.31;100.00
4576;BME280;2300;51.874;8.430;2022-12-07T03:30:07;100662.72;;;4.43;100.00
4576;BME280;2300;51.874;8.430;2022-12-07T03:32:37;100670.41;;;4.39;100.00
4576;BME280;2300;51.874;8.430;2022-12-07T03:35:11;100666.75;;;4.32;100.00
4576;BME280;2300;51.874;8.430;2022-12-07T03:37:45;100660.84;;;4.29;100.00
4576;BME280;2300;51.874;8.430;2022-12-07T03:40:17;100659.59;;;4.31;100.00
4576;BME280;2300;51.874;8.430;2022-12-07T03:42:48;100660.84;;;4.29;99.76
4576;BME280;2300;51.874;8.430;2022-12-07T03:45:16;100656.09;;;4.16;100.00
4576;BME280;2300;51.874;8.430;2022-12-07T03:47:47;100641.69;;;4.01;100.00
4576;BME280;2300;51.874;8.430;2022-12-07T03:50:25;100665.53;;;4.20;100.00
4576;BME280;2300;51.874;8.430;2022-12-07T03:52:56;100657.13;;;4.15;100.00
4576;BME280;2300;51.874;8.430;2022-12-07T03:55:28;100662.03;;;4.05;100.00
4576;BME280;2300;51.874;8.430;2022-12-07T03:57:59;100659.78;;;4.09;99.80
4576;BME280;2300;51.874;8.430;2022-12-07T04:00:28;100664.75;;;4.05;100.00
4576;BME280;2300;51.874;8.430;2022-12-07T04:02:55;100648.03;;;3.87;100.00
4576;BME280;2300;51.874;8.430;2022-12-07T04:05:21;100658.94;;;4.08;99.94
4576;BME280;2300;51.874;8.430;2022-12-07T04:07:48;100623.38;;;3.74;99.96
4576;BME280;2300;51.874;8.430;2022-12-07T04:10:15;100647.91;;;3.95;100.00
4576;BME280;2300;51.874;8.430;2022-12-07T04:12:41;100657.66;;;4.04;100.00
4576;BME280;2300;51.874;8.430;2022-12-07T04:15:08;100657.25;;;4.07;99.90
4576;BME280;2300;51.874;8.430;2022-12-07T04:17:37;100655.63;;;3.77;100.00
4576;BME280;2300;51.874;8.430;2022-12-07T04:20:05;100643.06;;;3.76;99.87
4576;BME280;2300;51.874;8.430;2022-12-07T04:22:32;100671.63;;;3.86;100.00
4576;BME280;2300;51.874;8.430;2022-12-07T04:24:59;100666.38;;;3.85;100.00
4576;BME280;2300;51.874;8.430;2022-12-07T04:27:25;100638.66;;;3.75;100.00
4576;BME280;2300;51.874;8.430;2022-12-07T04:29:52;100669.09;;;3.85;99.56
4576;BME280;2300;51.874;8.430;2022-12-07T04:32:22;100666.19;;;3.86;99.46
4576;BME280;2300;51.874;8.430;2022-12-07T04:34:50;100662.22;;;3.89;100.00
4576;BME280;2300;51.874;8.430;2022-12-07T04:37:16;100675.47;;;3.92;99.67
4576;BME280;2300;51.874;8.430;2022-12-07T04:39:43;100661.59;;;3.87;99.48
4576;BME280;2300;51.874;8.430;2022-12-07T04:42:10;100655.22;;;3.80;98.97
4576;BME280;2300;51.874;8.430;2022-12-07T04:44:38;100644.69;;;3.55;99.13
4576;BME280;2300;51.874;8.430;2022-12-07T04:47:05;100662.25;;;3.74;99.45
4576;BME280;2300;51.874;8.430;2022-12-07T04:49:31;100658.53;;;3.60;99.81
4576;BME280;2300;51.874;8.430;2022-12-07T04:51:59;100655.94;;;3.52;99.93
4576;BME280;2300;51.874;8.430;2022-12-07T04:54:26;100657.97;;;3.50;100.00
4576;BME280;2300;51.874;8.430;2022-12-07T04:56:52;100662.75;;;3.48;100.00
4576;BME280;2300;51.874;8.430;2022-12-07T04:59:19;100656.00;;;3.44;100.00
4576;BME280;2300;51.874;8.430;2022-12-07T05:01:46;100662.47;;;3.43;99.52
4576;BME280;2300;51.874;8.430;2022-12-07T05:04:12;100661.31;;;3.38;99.65
4576;BME280;2300;51.874;8.430;2022-12-07T05:06:41;100654.13;;;3.30;99.98
4576;BME280;2300;51.874;8.430;2022-12-07T05:09:09;100646.84;;;3.31;100.00
4576;BME280;2300;51.874;8.430;2022-12-07T05:11:36;100654.31;;;3.43;99.37
4576;BME280;2300;51.874;8.430;2022-12-07T05:14:09;100656.28;;;3.20;100.00
4576;BME280;2300;51.874;8.430;2022-12-07T05:16:36;100634.00;;;3.10;100.00
4576;BME280;2300;51.874;8.430;2022-12-07T05:19:03;100656.91;;;3.22;100.00
4576;BME280;2300;51.874;8.430;2022-12-07T05:21:30;100660.97;;;3.26;100.00
4576;BME280;2300;51.874;8.430;2022-12-07T05:23:56;100662.72;;;3.19;100.00
4576;BME280;2300;51.874;8.430;2022-12-07T05:26:24;100658.78;;;3.21;100.00
4576;BME280;2300;51.874;8.430;2022-12-07T05:28:52;100639.13;;;3.05;100.00
4576;BME280;2300;51.874;8.430;2022-12-07T05:31:18;100637.28;;;3.20;100.00
4576;BME280;2300;51.874;8.430;2022-12-07T05:33:45;100658.25;;;3.26;100.00
4576;BME280;2300;51.874;8.430;2022-12-07T05:36:12;100664.03;;;3.23;100.00
4576;BME280;2300;51.874;8.430;2022-12-07T05:38:38;100660.13;;;3.26;100.00
4576;BME280;2300;51.874;8.430;2022-12-07T05:41:06;100640.44;;;3.09;100.00
4576;BME280;2300;51.874;8.430;2022-12-07T05:43:56;100654.31;;;3.14;100.00
4576;BME280;2300;51.874;8.430;2022-12-07T05:46:22;100653.28;;;3.15;100.00
4576;BME280;2300;51.874;8.430;2022-12-07T05:48:49;100649.16;;;3.19;100.00
4576;BME280;2300;51.874;8.430;2022-12-07T05:51:16;100653.44;;;3.13;100.00
4576;BME280;2300;51.874;8.430;2022-12-07T05:53:42;100644.63;;;3.11;100.00
4576;BME280;2300;51.874;8.430;2022-12-07T05:56:09;100640.91;;;3.12;100.00
4576;BME280;2300;51.874;8.430;2022-12-07T05:58:35;100644.28;;;3.14;99.89
4576;BME280;2300;51.874;8.430;2022-12-07T06:01:21;100648.50;;;3.17;100.00
4576;BME280;2300;51.874;8.430;2022-12-07T06:03:47;100636.31;;;3.13;100.00
4576;BME280;2300;51.874;8.430;2022-12-07T06:06:15;100652.91;;;3.18;100.00
4576;BME280;2300;51.874;8.430;2022-12-07T06:08:41;100645.13;;;3.15;100.00
4576;BME280;2300;51.874;8.430;2022-12-07T06:11:08;100651.50;;;3.22;100.00
4576;BME280;2300;51.874;8.430;2022-12-07T06:13:52;100642.59;;;3.28;100.00
4576;BME280;2300;51.874;8.430;2022-12-07T06:16:18;100643.06;;;3.17;100.00
4576;BME280;2300;51.874;8.430;2022-12-07T06:18:46;100614.22;;;3.01;100.00
4576;BME280;2300;51.874;8.430;2022-12-07T06:21:13;100655.25;;;3.21;100.00
4576;BME280;2300;51.874;8.430;2022-12-07T06:23:40;100655.34;;;3.28;100.00
4576;BME280;2300;51.874;8.430;2022-12-07T06:26:06;100647.19;;;3.13;99.60
4576;BME280;2300;51.874;8.430;2022-12-07T06:28:33;100654.41;;;3.06;100.00
4576;BME280;2300;51.874;8.430;2022-12-07T06:31:00;100639.47;;;3.02;100.00
4576;BME280;2300;51.874;8.430;2022-12-07T06:33:27;100641.91;;;2.97;100.00
4576;BME280;2300;51.874;8.430;2022-12-07T06:35:55;100655.31;;;2.98;100.00
4576;BME280;2300;51.874;8.430;2022-12-07T06:38:22;100652.84;;;2.89;100.00
4576;BME280;2300;51.874;8.430;2022-12-07T06:40:49;100653.78;;;2.96;100.00
4576;BME280;2300;51.874;8.430;2022-12-07T06:43:15;100650.19;;;2.81;100.00
4576;BME280;2300;51.874;8.430;2022-12-07T06:45:42;100647.88;;;2.77;100.00
4576;BME280;2300;51.874;8.430;2022-12-07T06:48:09;100611.59;;;2.56;100.00
4576;BME280;2300;51.874;8.430;2022-12-07T06:50:35;100650.50;;;2.86;100.00
4576;BME280;2300;51.874;8.430;2022-12-07T06:53:03;100650.69;;;2.84;100.00
4576;BME280;2300;51.874;8.430;2022-12-07T06:55:30;100647.13;;;2.84;100.00
4576;BME280;2300;51.874;8.430;2022-12-07T06:57:56;100642.88;;;2.66;100.00
4576;BME280;2300;51.874;8.430;2022-12-07T07:00:23;100651.00;;;2.66;100.00
4576;BME280;2300;51.874;8.430;2022-12-07T07:02:49;100656.13;;;2.61;100.00
4576;BME280;2300;51.874;8.430;2022-12-07T07:05:16;100646.56;;;2.51;100.00
4576;BME280;2300;51.874;8.430;2022-12-07T07:07:43;100648.50;;;2.42;100.00
4576;BME280;2300;51.874;8.430;2022-12-07T07:10:10;100652.41;;;2.40;100.00
4576;BME280;2300;51.874;8.430;2022-12-07T07:12:37;100652.09;;;2.34;100.00
4576;BME280;2300;51.874;8.430;2022-12-07T07:15:04;100673.22;;;2.39;100.00
4576;BME280;2300;51.874;8.430;2022-12-07T07:17:31;100671.44;;;2.31;100.00
4576;BME280;2300;51.874;8.430;2022-12-07T07:19:58;100678.00;;;2.37;100.00
4576;BME280;2300;51.874;8.430;2022-12-07T07:22:24;100666.78;;;2.40;100.00
4576;BME280;2300;51.874;8.430;2022-12-07T07:24:51;100671.75;;;2.37;100.00
4576;BME280;2300;51.874;8.430;2022-12-07T07:27:19;100666.91;;;2.24;100.00
4576;BME280;2300;51.874;8.430;2022-12-07T07:29:45;100668.41;;;2.26;100.00
4576;BME280;2300;51.874;8.430;2022-12-07T07:32:17;100675.34;;;2.29;100.00
4576;BME280;2300;51.874;8.430;2022-12-07T07:34:43;100673.69;;;2.20;100.00
4576;BME280;2300;51.874;8.430;2022-12-07T07:37:12;100672.31;;;2.24;100.00
4576;BME280;2300;51.874;8.430;2022-12-07T07:39:39;100674.63;;;2.35;100.00
4576;BME280;2300;51.874;8.430;2022-12-07T07:42:05;100669.19;;;2.35;100.00
4576;BME280;2300;51.874;8.430;2022-12-07T07:44:34;100672.59;;;2.37;100.00
4576;BME280;2300;51.874;8.430;2022-12-07T07:47:01;100702.03;;;2.40;100.00
4576;BME280;2300;51.874;8.430;2022-12-07T07:49:28;100681.31;;;2.47;100.00
4576;BME280;2300;51.874;8.430;2022-12-07T07:51:54;100679.81;;;2.45;100.00
4576;BME280;2300;51.874;8.430;2022-12-07T07:54:21;100683.34;;;2.45;100.00
4576;BME280;2300;51.874;8.430;2022-12-07T07:56:47;100682.34;;;2.46;100.00
4576;BME280;2300;51.874;8.430;2022-12-07T07:59:14;100687.63;;;2.40;100.00
4576;BME280;2300;51.874;8.430;2022-12-07T08:01:42;100694.44;;;2.35;100.00
4576;BME280;2300;51.874;8.430;2022-12-07T08:04:09;100691.38;;;2.39;100.00
4576;BME280;2300;51.874;8.430;2022-12-07T08:06:35;100675.22;;;2.22;99.90
4576;BME280;2300;51.874;8.430;2022-12-07T08:09:02;100699.69;;;2.37;100.00
4576;BME280;2300;51.874;8.430;2022-12-07T08:11:30;100695.66;;;2.33;99.96
4576;BME280;2300;51.874;8.430;2022-12-07T08:13:57;100704.25;;;2.37;100.00
4576;BME280;2300;51.874;8.430;2022-12-07T08:16:23;100691.72;;;2.35;100.00
4576;BME280;2300;51.874;8.430;2022-12-07T08:18:51;100692.56;;;2.36;99.77
4576;BME280;2300;51.874;8.430;2022-12-07T08:21:18;100694.59;;;2.34;99.96
4576;BME280;2300;51.874;8.430;2022-12-07T08:23:44;100693.91;;;2.40;100.00
4576;BME280;2300;51.874;8.430;2022-12-07T08:26:13;100695.03;;;2.46;99.73
4576;BME280;2300;51.874;8.430;2022-12-07T08:28:40;100699.44;;;2.47;100.00
4576;BME280;2300;51.874;8.430;2022-12-07T08:31:10;100702.63;;;2.50;99.80
4576;BME280;2300;51.874;8.430;2022-12-07T08:33:37;100693.56;;;2.43;100.00
4576;BME280;2300;51.874;8.430;2022-12-07T08:36:08;100696.09;;;2.67;100.00
4576;BME280;2300;51.874;8.430;2022-12-07T08:38:36;100698.53;;;2.77;100.00
4576;BME280;2300;51.874;8.430;2022-12-07T08:41:03;100696.31;;;2.81;99.77
4576;BME280;2300;51.874;8.430;2022-12-07T08:43:30;100698.72;;;2.75;99.40
4576;BME280;2300;51.874;8.430;2022-12-07T08:46:04;100699.88;;;2.81;98.78
4576;BME280;2300;51.874;8.430;2022-12-07T08:48:32;100697.88;;;2.75;99.33
4576;BME280;2300;51.874;8.430;2022-12-07T08:51:01;100696.09;;;2.67;99.05
4576;BME280;2300;51.874;8.430;2022-12-07T08:53:29;100705.94;;;2.60;99.65
4576;BME280;2300;51.874;8.430;2022-12-07T08:55:57;100703.53;;;2.65;99.98
4576;BME280;2300;51.874;8.430;2022-12-07T08:58:24;100698.13;;;2.65;99.22
4576;BME280;2300;51.874;8.430;2022-12-07T09:00:50;100684.63;;;2.57;98.83
4576;BME280;2300;51.874;8.430;2022-12-07T09:03:17;100691.34;;;2.69;99.95
4576;BME280;2300;51.874;8.430;2022-12-07T09:05:43;100689.94;;;2.73;99.03
4576;BME280;2300;51.874;8.430;2022-12-07T09:08:10;100692.06;;;2.63;99.71
4576;BME280;2300;51.874;8.430;2022-12-07T09:10:38;100698.72;;;2.75;99.53
4576;BME280;2300;51.874;8.430;2022-12-07T09:13:05;100695.84;;;2.77;98.81
4576;BME280;2300;51.874;8.430;2022-12-07T09:15:31;100689.94;;;2.73;99.14
4576;BME280;2300;51.874;8.430;2022-12-07T09:17:58;100696.81;;;2.84;99.75
4576;BME280;2300;51.874;8.430;2022-12-07T09:20:24;100695.31;;;2.96;99.09
4576;BME280;2300;51.874;8.430;2022-12-07T09:22:51;100700.25;;;3.15;99.79
4576;BME280;2300;51.874;8.430;2022-12-07T09:25:18;100701.59;;;3.34;98.77
4576;BME280;2300;51.874;8.430;2022-12-07T09:27:45;100706.19;;;3.48;98.98
4576;BME280;2300;51.874;8.430;2022-12-07T09:30:12;100699.84;;;3.71;98.74
4576;BME280;2300;51.874;8.430;2022-12-07T09:32:39;100704.41;;;3.85;97.93
4576;BME280;2300;51.874;8.430;2022-12-07T09:35:06;100693.25;;;3.80;96.93
4576;BME280;2300;51.874;8.430;2022-12-07T09:37:32;100681.34;;;3.95;96.50
4576;BME280;2300;51.874;8.430;2022-12-07T09:40:01;100697.00;;;4.08;95.53
4576;BME280;2300;51.874;8.430;2022-12-07T09:42:30;100699.66;;;4.37;96.41
4576;BME280;2300;51.874;8.430;2022-12-07T09:45:01;100701.75;;;4.57;95.32
4576;BME280;2300;51.874;8.430;2022-12-07T09:47:29;100704.28;;;4.58;94.28
4576;BME280;2300;51.874;8.430;2022-12-07T09:50:03;100708.81;;;4.72;93.65
4576;BME280;2300;51.874;8.430;2022-12-07T09:52:30;100702.09;;;4.89;94.44
4576;BME280;2300;51.874;8.430;2022-12-07T09:54:57;100699.28;;;5.04;93.02
4576;BME280;2300;51.874;8.430;2022-12-07T09:57:28;100676.31;;;4.85;92.85
4576;BME280;2300;51.874;8.430;2022-12-07T09:59:56;100698.41;;;4.97;92.07
4576;BME280;2300;51.874;8.430;2022-12-07T10:02:35;100695.94;;;5.02;91.76
4576;BME280;2300;51.874;8.430;2022-12-07T10:05:05;100688.41;;;4.83;91.47
4576;BME280;2300;51.874;8.430;2022-12-07T10:07:32;100690.28;;;4.82;91.69
4576;BME280;2300;51.874;8.430;2022-12-07T10:09:58;100699.44;;;4.96;91.94
4576;BME280;2300;51.874;8.430;2022-12-07T10:12:25;100683.13;;;4.75;91.54
4576;BME280;2300;51.874;8.430;2022-12-07T10:14:57;100679.69;;;4.66;92.07
4576;BME280;2300;51.874;8.430;2022-12-07T10:17:33;100691.94;;;4.77;91.30
4576;BME280;2300;51.874;8.430;2022-12-07T10:20:15;100692.72;;;4.92;91.29
4576;BME280;2300;51.874;8.430;2022-12-07T10:22:57;100683.88;;;4.90;90.87
4576;BME280;2300;51.874;8.430;2022-12-07T10:25:27;100691.47;;;4.95;91.50
4576;BME280;2300;51.874;8.430;2022-12-07T10:28:03;100682.72;;;4.78;92.11
4576;BME280;2300;51.874;8.430;2022-12-07T10:30:47;100688.16;;;4.99;91.40
4576;BME280;2300;51.874;8.430;2022-12-07T10:33:31;100691.78;;;5.06;91.42
4576;BME280;2300;51.874;8.430;2022-12-07T10:35:59;100687.78;;;5.02;90.96
4576;BME280;2300;51.874;8.430;2022-12-07T10:38:27;100685.09;;;5.09;90.88
4576;BME280;2300;51.874;8.430;2022-12-07T10:41:05;100676.81;;;4.96;90.92
4576;BME280;2300;51.874;8.430;2022-12-07T10:43:32;100669.75;;;5.01;91.29
4576;BME280;2300;51.874;8.430;2022-12-07T10:46:26;100664.94;;;5.03;91.15
4576;BME280;2300;51.874;8.430;2022-12-07T10:49:07;100675.78;;;5.24;90.20
4576;BME280;2300;51.874;8.430;2022-12-07T10:51:43;100665.59;;;5.05;89.98
4576;BME280;2300;51.874;8.430;2022-12-07T10:54:21;100668.88;;;5.22;90.13
4576;BME280;2300;51.874;8.430;2022-12-07T10:57:00;100638.63;;;5.45;89.88
4576;BME280;2300;51.874;8.430;2022-12-07T10:59:42;100662.06;;;5.73;89.46
4576;BME280;2300;51.874;8.430;2022-12-07T11:02:25;100657.97;;;5.97;88.66
4576;BME280;2300;51.874;8.430;2022-12-07T11:05:03;100653.41;;;6.04;87.74
4576;BME280;2300;51.874;8.430;2022-12-07T11:07:43;100652.13;;;6.00;87.87
4576;BME280;2300;51.874;8.430;2022-12-07T11:10:18;100658.06;;;5.69;87.51
4576;BME280;2300;51.874;8.430;2022-12-07T11:12:55;100650.00;;;5.55;88.25
4576;BME280;2300;51.874;8.430;2022-12-07T11:15:29;100639.09;;;5.55;88.32
4576;BME280;2300;51.874;8.430;2022-12-07T11:18:03;100635.59;;;5.61;88.63
4576;BME280;2300;51.874;8.430;2022-12-07T11:20:41;100644.00;;;5.66;88.88
4576;BME280;2300;51.874;8.430;2022-12-07T11:23:18;100650.53;;;5.37;88.23
4576;BME280;2300;51.874;8.430;2022-12-07T11:25:54;100616.41;;;5.07;89.11
4576;BME280;2300;51.874;8.430;2022-12-07T11:28:41;100620.81;;;5.08;89.66
4576;BME280;2300;51.874;8.430;2022-12-07T11:31:16;100617.78;;;4.96;89.55
4576;BME280;2300;51.874;8.430;2022-12-07T11:33:47;100629.59;;;5.10;89.90
4576;BME280;2300;51.874;8.430;2022-12-07T11:36:33;100630.56;;;4.96;89.86
4576;BME280;2300;51.874;8.430;2022-12-07T11:39:04;100625.50;;;5.20;90.05
4576;BME280;2300;51.874;8.430;2022-12-07T11:41:35;100609.03;;;5.28;89.95
4576;BME280;2300;51.874;8.430;2022-12-07T11:44:06;100605.59;;;5.20;89.70
4576;BME280;2300;51.874;8.430;2022-12-07T11:46:45;100614.69;;;5.33;89.40
4576;BME280;2300;51.874;8.430;2022-12-07T11:49:19;100617.63;;;5.32;89.50
4576;BME280;2300;51.874;8.430;2022-12-07T11:51:51;100623.50;;;5.36;88.98
4576;BME280;2300;51.874;8.430;2022-12-07T11:54:22;100616.13;;;5.29;88.64
4576;BME280;2300;51.874;8.430;2022-12-07T11:56:51;100599.75;;;5.23;89.02
4576;BME280;2300;51.874;8.430;2022-12-07T11:59:25;100607.41;;;5.41;88.79
4576;BME280;2300;51.874;8.430;2022-12-07T12:01:56;100606.63;;;5.53;88.78
4576;BME280;2300;51.874;8.430;2022-12-07T12:04:31;100602.03;;;5.60;88.81
4576;BME280;2300;51.874;8.430;2022-12-07T12:07:02;100599.19;;;5.75;89.11
4576;BME280;2300;51.874;8.430;2022-12-07T12:09:34;100596.63;;;5.67;87.98
4576;BME280;2300;51.874;8.430;2022-12-07T12:12:16;100586.97;;;5.58;88.09
4576;BME280;2300;51.874;8.430;2022-12-07T12:14:57;100522.22;;;5.12;88.03
4576;BME280;2300;51.874;8.430;2022-12-07T12:20:29;100594.28;;;5.16;88.09
4576;BME280;2300;51.874;8.430;2022-12-07T12:23:05;100597.63;;;5.18;88.79
4576;BME280;2300;51.874;8.430;2022-12-07T12:25:38;100597.63;;;5.18;89.56
4576;BME280;2300;51.874;8.430;2022-12-07T12:28:15;100588.81;;;5.51;89.34
4576;BME280;2300;51.874;8.430;2022-12-07T12:30:44;100581.56;;;5.71;88.77
4576;BME280;2300;51.874;8.430;2022-12-07T12:33:16;100577.44;;;5.88;88.46
4576;BME280;2300;51.874;8.430;2022-12-07T12:35:45;100579.38;;;6.01;88.29
4576;BME280;2300;51.874;8.430;2022-12-07T12:38:31;100579.97;;;5.96;86.92
4576;BME280;2300;51.874;8.430;2022-12-07T12:41:00;100565.44;;;5.76;87.38
4576;BME280;2300;51.874;8.430;2022-12-07T12:43:48;100578.31;;;5.95;87.48
4576;BME280;2300;51.874;8.430;2022-12-07T12:46:48;100568.59;;;5.73;86.83
4576;BME280;2300;51.874;8.430;2022-12-07T12:49:42;100559.25;;;5.48;87.58
4576;BME280;2300;51.874;8.430;2022-12-07T12:55:15;100561.84;;;5.21;87.62
4576;BME280;2300;51.874;8.430;2022-12-07T12:57:47;100568.16;;;5.28;87.30
4576;BME280;2300;51.874;8.430;2022-12-07T13:00:18;100567.44;;;5.13;87.72
4576;BME280;2300;51.874;8.430;2022-12-07T13:02:50;100549.03;;;5.15;87.76
4576;BME280;2300;51.874;8.430;2022-12-07T13:05:19;100555.41;;;5.36;87.58
4576;BME280;2300;51.874;8.430;2022-12-07T13:07:53;100557.72;;;5.32;87.19
4576;BME280;2300;51.874;8.430;2022-12-07T13:10:32;100546.16;;;5.30;87.55
4576;BME280;2300;51.874;8.430;2022-12-07T13:13:01;100551.03;;;5.41;87.20
4576;BME280;2300;51.874;8.430;2022-12-07T13:15:34;100545.88;;;5.18;87.32
4576;BME280;2300;51.874;8.430;2022-12-07T13:18:03;100541.03;;;5.14;87.79
4576;BME280;2300;51.874;8.430;2022-12-07T13:20:47;100538.38;;;4.86;87.88
4576;BME280;2300;51.874;8.430;2022-12-07T13:23:18;100542.69;;;5.08;88.32
4576;BME280;2300;51.874;8.430;2022-12-07T13:25:53;100551.97;;;5.20;87.65
4576;BME280;2300;51.874;8.430;2022-12-07T13:28:22;100554.09;;;5.25;87.71
4576;BME280;2300;51.874;8.430;2022-12-07T13:33:42;100548.69;;;5.31;87.36
4576;BME280;2300;51.874;8.430;2022-12-07T13:36:17;100520.06;;;5.01;87.33
4576;BME280;2300;51.874;8.430;2022-12-07T13:38:50;100542.44;;;5.38;87.10
4576;BME280;2300;51.874;8.430;2022-12-07T13:41:20;100544.38;;;5.50;87.54
4576;BME280;2300;51.874;8.430;2022-12-07T13:43:54;100541.66;;;5.50;87.64
4576;BME280;2300;51.874;8.430;2022-12-07T13:46:27;100536.25;;;5.57;87.39